Weather observations for the past three days for
Bastrop, Morehouse Memorial Airport
| Date | Time (cdt) | Wind (kph) | Vis. (km) | Weather | Sky Cond. | Temperature (ºC) | Relative Humidity | Wind Chill (°C) | Heat Index (°C) | Pressure | Precipitation (cm) | ||||||
|---|---|---|---|---|---|---|---|---|---|---|---|---|---|---|---|---|---|
| Air | Dwpt | 6 hour | altimeter (cm) | sea level (mb) | 1 hr | 3 hr | 6 hr | ||||||||||
| Max. | Min. | ||||||||||||||||
| 03 | 15:30 | SW 7 | 0.00 | Partly Cloudy | SCT075 | 26.3 | 8.1 | 32% | 26 | 76.43 | 0.0 | ||||||
| 03 | 15:10 | W 11 | 0.00 | Partly Cloudy | SCT075 | 26.2 | 8.6 | 33% | 26 | 76.45 | 0.0 | ||||||
| 03 | 14:50 | W 6 G 15 | 0.00 | Partly Cloudy | SCT065 SCT080 | 25.1 | 7.9 | 33% | 26 | 76.48 | 0.0 | ||||||
| 03 | 14:30 | S 9 | 0.00 | Partly Cloudy | SCT065 | 24.8 | 9.1 | 37% | 26 | 76.5 | 0.0 | ||||||
| 03 | 14:10 | W 7 | 0.00 | Partly Cloudy | SCT065 | 25.4 | 9.2 | 36% | 26 | 76.53 | 0.0 | ||||||
| 03 | 13:50 | Calm | 0.00 | Partly Cloudy | SCT065 | 25.5 | 8.6 | 34% | 26 | 76.56 | 0.0 | ||||||
| 03 | 13:30 | Calm | 0.00 | Partly Cloudy | SCT065 | 25.3 | 7.9 | 33% | 26 | 76.56 | 0.0 | ||||||
| 03 | 13:10 | SW 6 | 0.00 | Fair | CLR | 24.7 | 8.3 | 35% | 25 | 76.58 | 0.0 | ||||||
| 03 | 12:50 | W 9 | 0.00 | Fair | CLR | 24.1 | 7.2 | 24.7 | 8.5 | 34% | 25 | 76.61 | 0.0 | ||||
| 03 | 12:30 | SW 7 | 0.00 | NULL | NULL | 24.6 | 6.9 | 32% | 25 | 76.63 | 0.0 | ||||||
| 03 | 12:10 | W 6 | 0.00 | Fair | CLR | 24 | 7.4 | 35% | 25 | 76.66 | 0.0 | ||||||
| 03 | 11:50 | SW 11 | 0.00 | Fair | CLR | 24.1 | 6.9 | 33% | 25 | 76.68 | 0.0 | ||||||
| 03 | 11:30 | SW 7 | 0.00 | Fair | CLR | 23.2 | 8.5 | 39% | 76.68 | 0.0 | |||||||
| 03 | 11:10 | SW 9 | 0.00 | Fair | CLR | 22.8 | 8.3 | 40% | 76.68 | 0.0 | |||||||
| 03 | 10:50 | W 15 | 0.00 | Fair | CLR | 22.5 | 8.5 | 41% | 76.71 | 0.0 | |||||||
| 03 | 10:30 | SW 7 | 0.00 | Fair | CLR | 21.5 | 9.2 | 46% | 76.71 | 0.0 | |||||||
| 03 | 10:10 | Calm | 0.00 | Fair | CLR | 20.8 | 9.2 | 48% | 76.71 | 0.0 | |||||||
| 03 | 09:50 | Calm | 0.00 | Fair | CLR | 19.9 | 10.7 | 56% | 76.71 | 0.0 | |||||||
| 03 | 09:30 | Calm | 0.00 | Fair | CLR | 19.2 | 9.1 | 52% | 76.71 | 0.0 | |||||||
| 03 | 09:10 | Calm | 0.00 | Fair | CLR | 17.8 | 10 | 60% | 76.71 | 0.0 | |||||||
| 03 | 08:50 | Calm | 0.00 | Fair | CLR | 16.9 | 10.3 | 65% | 76.71 | 0.0 | |||||||
| 03 | 08:30 | Calm | 0.00 | Fair | CLR | 15.7 | 10.9 | 73% | 76.71 | 0.0 | |||||||
| 03 | 08:10 | Calm | 0.00 | Fair | CLR | 14.5 | 10.9 | 79% | 76.68 | 0.0 | |||||||
| 03 | 07:50 | Calm | 0.00 | NULL | NULL | 13 | 10.7 | 86% | 76.68 | 0.0 | |||||||
| 03 | 07:30 | Calm | 0.00 | NULL | NULL | 11.4 | 10.7 | 96% | 76.66 | 0.0 | |||||||
| 03 | 07:10 | Calm | 0.00 | NULL | NULL | 9.6 | 9.3 | 98% | 76.66 | 0.0 | |||||||
| 03 | 06:50 | Calm | 0.00 | NULL | NULL | 8.1 | 7.6 | 10.4 | 7.7 | 97% | 76.63 | 0.0 | |||||
| 03 | 06:30 | Calm | 0.00 | NULL | NULL | 8.2 | 7.7 | 97% | 76.61 | 0.0 | |||||||
| 03 | 06:10 | Calm | 0.00 | NULL | NULL | 8 | 7.5 | 97% | 76.58 | 0.0 | |||||||
| 03 | 05:50 | Calm | 0.00 | NULL | NULL | 7.8 | 7.3 | 97% | 76.58 | 0.0 | |||||||
| 03 | 05:30 | Calm | 0.00 | NULL | NULL | 8.1 | 7.6 | 97% | 76.56 | 0.0 | |||||||
| 03 | 05:10 | Calm | 0.00 | NULL | NULL | 8.1 | 7.6 | 97% | 76.56 | 0.0 | |||||||
| 03 | 04:50 | Calm | 0.00 | NULL | NULL | 8.5 | 7.9 | 96% | 76.56 | 0.0 | |||||||
| 03 | 04:30 | Calm | 0.00 | NULL | NULL | 9 | 8.4 | 96% | 76.53 | 0.0 | |||||||
| 03 | 04:10 | Calm | 0.00 | NULL | NULL | 8.5 | 7.8 | 95% | 76.53 | 0.0 | |||||||
| 03 | 03:50 | Calm | 0.00 | NULL | NULL | 9 | 8.1 | 94% | 76.53 | 0.0 | |||||||
| 03 | 03:30 | Calm | 0.00 | NULL | NULL | 9.2 | 8.3 | 94% | 76.53 | 0.0 | |||||||
| 03 | 03:10 | Calm | 0.00 | NULL | NULL | 9.6 | 8.6 | 94% | 76.53 | 0.0 | |||||||
| 03 | 02:50 | Calm | 0.00 | NULL | NULL | 9.7 | 8.4 | 92% | 76.53 | 0.0 | |||||||
| 03 | 02:30 | Calm | 0.00 | NULL | NULL | 9.7 | 8.2 | 90% | 76.5 | 0.0 | |||||||
| 03 | 02:10 | Calm | 0.00 | NULL | NULL | 9.5 | 8.1 | 91% | 76.5 | 0.0 | |||||||
| 03 | 01:50 | Calm | 0.00 | NULL | NULL | 10 | 8.1 | 88% | 76.5 | 0.0 | |||||||
| 03 | 01:30 | Calm | 0.00 | NULL | NULL | 10 | 8.2 | 89% | 76.53 | 0.0 | |||||||
| 03 | 01:10 | Calm | 0.00 | Fair | CLR | 10.3 | 7.9 | 85% | 76.53 | 0.0 | |||||||
| 03 | 00:50 | Calm | 0.00 | Fair | CLR | 10.7 | 7.7 | 21 | 10.3 | 82% | 76.53 | 0.0 | |||||
| 03 | 00:30 | Calm | 0.00 | Fair | CLR | 11 | 8 | 82% | 76.53 | 0.0 | |||||||
| 03 | 00:10 | Calm | 0.00 | NULL | NULL | 10.6 | 8.2 | 85% | 76.5 | 0.0 | |||||||
| 02 | 23:50 | Calm | 0.00 | Fair | CLR | 11.5 | 8.2 | 80% | 76.5 | 0.0 | |||||||
| 02 | 23:30 | Calm | 0.00 | Fair | CLR | 11 | 8.2 | 83% | 76.5 | 0.0 | |||||||
| 02 | 23:10 | Calm | 0.00 | Fair | CLR | 11.5 | 8.2 | 80% | 76.5 | 0.0 | |||||||
| 02 | 22:50 | Calm | 0.00 | Fair | CLR | 10.9 | 8.1 | 83% | 76.5 | 0.0 | |||||||
| 02 | 22:30 | Calm | 0.00 | Fair | CLR | 11.7 | 8.4 | 80% | 76.5 | 0.0 | |||||||
| 02 | 22:10 | Calm | 0.00 | Fair | CLR | 11.6 | 8.4 | 81% | 76.5 | 0.0 | |||||||
| 02 | 21:50 | Calm | 0.00 | Fair | CLR | 11.5 | 8.7 | 83% | 76.48 | 0.0 | |||||||
| 02 | 21:30 | Calm | 0.00 | Fair | CLR | 12 | 8.4 | 79% | 76.45 | 0.0 | |||||||
| 02 | 21:10 | Calm | 0.00 | Fair | CLR | 12.5 | 8.6 | 77% | 76.45 | 0.0 | |||||||
| 02 | 20:50 | Calm | 0.00 | Fair | CLR | 12.4 | 9 | 80% | 76.45 | 0.0 | |||||||
| 02 | 20:30 | Calm | 0.00 | Fair | CLR | 13.6 | 8.2 | 70% | 76.43 | 0.0 | |||||||
| 02 | 20:10 | Calm | 0.00 | Fair | CLR | 14.1 | 8.6 | 70% | 76.43 | 0.0 | |||||||
| 02 | 19:50 | Calm | 0.00 | Fair | CLR | 15.6 | 8.3 | 62% | 76.4 | 0.0 | |||||||
| 02 | 19:30 | Calm | 0.00 | Fair | CLR | 17.3 | 8.6 | 57% | 76.4 | 0.0 | |||||||
| 02 | 19:10 | Calm | 0.00 | Fair | CLR | 19.4 | 8.2 | 48% | 76.4 | 0.0 | |||||||
| 02 | 18:50 | Calm | 0.00 | Fair | CLR | 21.3 | 5.5 | 23.6 | 20.9 | 36% | 76.38 | 0.0 | |||||
| 02 | 18:30 | Calm | 0.00 | Fair | CLR | 21.9 | 5.2 | 34% | 76.35 | 0.0 | |||||||
| 02 | 18:10 | Calm | 0.00 | Fair | CLR | 22.2 | 5.2 | 33% | 76.35 | 0.0 | |||||||
| 02 | 17:50 | Calm | 0.00 | Fair | CLR | 22.5 | 4.9 | 32% | 76.35 | 0.0 | |||||||
| 02 | 17:30 | Calm | 0.00 | Mostly Cloudy | BKN090 | 22.7 | 4.8 | 31% | 76.38 | 0.0 | |||||||
| 02 | 17:10 | Calm | 0.00 | Mostly Cloudy | BKN090 | 22.7 | 4.4 | 30% | 76.35 | 0.0 | |||||||
| 02 | 16:50 | Calm | 0.00 | Partly Cloudy | SCT090 | 22.7 | 3.8 | 29% | 76.38 | 0.0 | |||||||
| 02 | 16:30 | Calm | 0.00 | Partly Cloudy | SCT090 | 21.9 | 3.6 | 30% | 76.38 | 0.0 | |||||||
| 02 | 16:10 | NW 17 | 0.00 | Partly Cloudy | SCT090 | 23.4 | 4.3 | 29% | 76.4 | 0.0 | |||||||
| 02 | 15:50 | N 6 | 0.00 | Fair | CLR | 22.8 | 3.9 | 29% | 76.4 | 0.0 | |||||||
| 02 | 15:30 | NW 13 | 0.00 | Partly Cloudy | SCT085 | 22.6 | 3.7 | 29% | 76.43 | 0.0 | |||||||
| 02 | 15:10 | N 6 | 0.00 | Mostly Cloudy | BKN080 | 21.9 | 3.7 | 30% | 76.45 | 0.0 | |||||||
| 02 | 14:50 | N 7 | 0.00 | Partly Cloudy | SCT080 | 22.4 | 3.5 | 29% | 76.45 | 0.0 | |||||||
| 02 | 14:30 | NW 11 | 0.00 | Partly Cloudy | SCT080 | 22.4 | 3.2 | 28% | 76.48 | 0.0 | |||||||
| 02 | 14:10 | N 11 | 0.00 | Partly Cloudy | SCT080 | 22.9 | 3.8 | 29% | 76.48 | 0.0 | |||||||
| 02 | 13:50 | NW 7 | 0.00 | Fair | CLR | 22 | 2.6 | 28% | 76.48 | 0.0 | |||||||
| 02 | 13:30 | N 13 | 0.00 | Fair | CLR | 22.3 | 2.8 | 28% | 76.5 | 0.0 | |||||||
| 02 | 13:10 | NW 13 | 0.00 | Fair | CLR | 22.2 | 3.3 | 29% | 76.5 | 0.0 | |||||||
| 02 | 12:50 | NW 17 | 0.00 | Fair | CLR | 21.7 | 3 | 22 | 11 | 29% | 76.53 | 0.0 | 0.03 | ||||
| 02 | 12:30 | N 6 | 0.00 | Fair | CLR | 21.4 | 4.7 | 34% | 76.53 | 0.0 | |||||||
| 02 | 12:10 | NE 6 | 0.00 | Fair | CLR | 21 | 3.3 | 31% | 76.56 | 0.0 | |||||||
| 02 | 11:50 | N 6 | 0.00 | Fair | CLR | 20.6 | 3.4 | 32% | 76.58 | 0.0 | |||||||
| 02 | 11:30 | NW 9 | 0.00 | Fair | CLR | 20.2 | 4.4 | 36% | 76.56 | 0.0 | |||||||
| 02 | 11:10 | N 9 | 0.00 | Fair | CLR | 19.9 | 4.7 | 37% | 76.56 | 0.0 | |||||||
| 02 | 10:50 | NW 6 | 0.00 | Fair | CLR | 19.4 | 5.2 | 39% | 76.56 | 0.0 | |||||||
| 02 | 10:30 | Calm | 0.00 | Fair | CLR | 19 | 6.4 | 44% | 76.56 | 0.0 | |||||||
| 02 | 10:10 | Calm | 0.00 | Fair | CLR | 18 | 6.9 | 48% | 76.56 | 0.0 | |||||||
| 02 | 09:50 | Calm | 0.00 | Fair | CLR | 17.1 | 6.4 | 50% | 76.56 | 0.0 | 0.03 | ||||||
| 02 | 09:30 | Calm | 0.00 | Fair | CLR | 16.9 | 7 | 52% | 76.56 | 0.0 | |||||||
| 02 | 09:10 | N 6 | 0.00 | Fair | CLR | 16 | 7.8 | 58% | 76.53 | 0.0 | |||||||
| 02 | 08:50 | Calm | 0.00 | Fair | CLR | 15 | 7.9 | 63% | 76.5 | 0.0 | 0.03 | ||||||
| 02 | 08:30 | Calm | 0.00 | Fair | CLR | 14.2 | 8.1 | 67% | 76.5 | 0.0 | |||||||
| 02 | 08:10 | Calm | 0.00 | Fair | CLR | 13.5 | 8.3 | 71% | 76.48 | 0.0 | |||||||
| 02 | 07:50 | Calm | 0.00 | Fair | CLR | 12.2 | 8.2 | 77% | 76.45 | 0.0 | |||||||
| 02 | 07:30 | N 6 | 0.00 | Fair | CLR | 12.3 | 8 | 75% | 76.45 | 0.0 | |||||||
| 02 | 07:10 | Calm | 0.00 | Fair | CLR | 11.5 | 8.3 | 81% | 76.4 | 0.0 | |||||||
| 02 | 06:50 | Calm | 0.00 | Fair | CLR | 11 | 8.3 | 12.6 | 11 | 84% | 76.38 | 0.0 | |||||
| 02 | 06:30 | Calm | 0.00 | Fair | CLR | 11 | 8.5 | 85% | 76.35 | 0.0 | |||||||
| 02 | 06:10 | Calm | 0.00 | NULL | NULL | 11.1 | 8.6 | 85% | 76.35 | 0.0 | |||||||
| 02 | 05:50 | Calm | 0.00 | NULL | NULL | 11.2 | 8.7 | 85% | 76.33 | 0.0 | |||||||
| 02 | 05:30 | Calm | 0.00 | Fair | CLR | 11.4 | 9 | 85% | 76.3 | 0.0 | |||||||
| 02 | 05:10 | Calm | 0.00 | NULL | NULL | 11.5 | 9.3 | 86% | 76.28 | 0.0 | |||||||
| 02 | 04:50 | Calm | 0.00 | NULL | NULL | 11.6 | 9.5 | 87% | 76.28 | 0.0 | |||||||
| 02 | 04:30 | Calm | 0.00 | NULL | NULL | 11.7 | 9.6 | 87% | 76.28 | 0.0 | |||||||
| 02 | 04:10 | Calm | 0.00 | NULL | NULL | 11.8 | 9.8 | 88% | 76.28 | 0.0 | |||||||
| 02 | 03:50 | Calm | 0.00 | NULL | NULL | 12 | 10 | 88% | 76.25 | 0.0 | |||||||
| 02 | 03:30 | Calm | 0.00 | NULL | NULL | 12.1 | 10.1 | 88% | 76.23 | 0.0 | |||||||
| 02 | 03:10 | Calm | 0.00 | NULL | NULL | 12.2 | 10.1 | 87% | 76.23 | 0.0 | |||||||
| 02 | 02:50 | Calm | 0.00 | NULL | NULL | 12.2 | 10.7 | 91% | 76.23 | 0.0 | |||||||
| 02 | 02:30 | Calm | 0.00 | NULL | NULL | 12.1 | 11.1 | 94% | 76.23 | 0.0 | |||||||
| 02 | 02:10 | Calm | 0.00 | NULL | NULL | 12.1 | 11.5 | 96% | 76.25 | 0.0 | |||||||
| 02 | 01:50 | Calm | 0.00 | NULL | NULL | 12 | 11.3 | 96% | 76.28 | 0.0 | |||||||
| 02 | 01:30 | Calm | 0.00 | NULL | NULL | 12 | 11.1 | 94% | 76.28 | 0.0 | |||||||
| 02 | 01:10 | Calm | 0.00 | NULL | NULL | 12.5 | 11.6 | 94% | 76.28 | 0.0 | |||||||
| 02 | 00:50 | Calm | 0.00 | Overcast | OVC100 | 12.6 | 11.3 | 13.5 | 12.5 | 92% | 76.3 | 0.0 | |||||
| 02 | 00:30 | Calm | 0.00 | Overcast | OVC100 | 12.5 | 11.5 | 94% | 76.3 | 0.0 | |||||||
| 02 | 00:10 | Calm | 0.00 | Overcast | OVC090 | 13 | 11.1 | 88% | 76.33 | 0.0 | |||||||
| 01 | 23:50 | Calm | 0.00 | Overcast | OVC090 | 13.1 | 11.4 | 90% | 76.28 | 0.0 | |||||||
| 01 | 23:30 | Calm | 0.00 | Overcast | OVC100 | 13.2 | 11.3 | 88% | 76.28 | 0.0 | |||||||
| 01 | 23:10 | Calm | 0.00 | Overcast | OVC110 | 13 | 12.2 | 95% | 76.28 | 0.0 | |||||||
| 01 | 22:50 | Calm | 0.00 | NULL | NULL | 13.2 | 12.5 | 96% | 76.33 | 0.0 | |||||||
| 01 | 22:30 | Calm | 0.00 | NULL | NULL | 13.5 | 12.2 | 92% | 76.3 | 0.0 | |||||||
| 01 | 22:10 | Calm | 0.00 | NULL | NULL | 13.1 | 12.2 | 94% | 76.28 | 0.0 | |||||||
| 01 | 21:50 | Calm | 0.00 | Overcast | OVC100 | 13.1 | 12.3 | 95% | 76.28 | 0.0 | |||||||
| 01 | 21:30 | Calm | 0.00 | NULL | NULL | 12.8 | 12.2 | 96% | 76.2 | 0.0 | |||||||
| 01 | 21:10 | Calm | 0.00 | NULL | NULL | 12.9 | 12 | 94% | 76.17 | 0.0 | |||||||
| 01 | 20:50 | Calm | 0.00 | Mostly Cloudy | BKN100 BKN120 | 13.1 | 11.9 | 93% | 76.17 | 0.0 | |||||||
| 01 | 20:30 | Calm | 0.00 | Overcast | OVC100 | 13 | 12 | 94% | 76.15 | 0.0 | |||||||
| 01 | 20:10 | Calm | 0.00 | NULL | NULL | 12.9 | 12 | 94% | 76.17 | 0.0 | |||||||
| 01 | 19:50 | Calm | 0.00 | NULL | NULL | 13.2 | 12.3 | 94% | 76.25 | 0.0 | |||||||
| 01 | 19:30 | Calm | 0.00 | Overcast | OVC090 | 13.3 | 12.2 | 93% | 76.2 | 0.0 | |||||||
| 01 | 19:10 | Calm | 0.00 | Overcast | OVC090 | 13.4 | 12.2 | 93% | 76.2 | 0.0 | |||||||
| 01 | 18:50 | Calm | 0.00 | Overcast | OVC090 | 13.3 | 11.8 | 14.5 | 13.3 | 91% | 76.2 | 0.0 | 0.03 | ||||
| 01 | 18:30 | Calm | 0.00 | Overcast | OVC090 | 13.7 | 12 | 90% | 76.17 | 0.0 | |||||||
| 01 | 18:10 | Calm | 0.00 | Overcast | OVC100 | 14 | 11.7 | 86% | 76.17 | 0.0 | |||||||
| 01 | 17:50 | Calm | 0.00 | Overcast | OVC100 | 14.5 | 10.3 | 76% | 76.15 | 0.0 | |||||||
| 01 | 17:30 | Calm | 0.00 | Overcast | OVC100 | 14 | 10.5 | 80% | 76.1 | 0.0 | |||||||
| 01 | 17:10 | Calm | 0.00 | Overcast | OVC100 | 14.2 | 10.2 | 77% | 76.07 | 0.0 | |||||||
| 01 | 16:50 | NE 6 | 0.00 | Overcast | OVC090 | 14.2 | 10.2 | 77% | 76.02 | 0.0 | |||||||
| 01 | 16:30 | NE 7 | 0.00 | Mostly Cloudy | BKN090 | 14.2 | 9.9 | 76% | 76.02 | 0.0 | |||||||
| 01 | 16:10 | NE 9 | 0.00 | Mostly Cloudy | BKN090 | 14.2 | 10 | 76% | 76 | 0.0 | |||||||
| 01 | 15:50 | E 9 | 0.00 | Overcast | OVC090 | 14.1 | 10.5 | 79% | 76.02 | 0.0 | 0.03 | 0.03 | |||||
| 01 | 15:30 | NE 6 | 0.00 | Overcast | OVC090 | 14.2 | 11.3 | 83% | 76.1 | 0.0 | |||||||
| 01 | 15:10 | E 7 | 0.00 | NULL | NULL | 14.1 | 12 | 87% | 76.15 | 0.0 | |||||||
| 01 | 14:50 | Calm | 0.00 | Overcast | OVC095 | 14 | 12.2 | 89% | 76.15 | 0.0 | |||||||
| 01 | 14:30 | NE 7 | 0.00 | Overcast | OVC095 | 13.7 | 12.4 | 92% | 76.17 | 0.0 | |||||||
| 01 | 14:10 | Calm | 0.00 | NULL | NULL | 13.7 | 12.5 | 93% | 76.2 | 0.0 | |||||||
| 01 | 13:50 | Calm | 0.00 | NULL | NULL | 13.8 | 12.8 | 94% | 76.25 | 0.0 | |||||||
| 01 | 13:30 | NE 6 | 0.00 | NULL | NULL | 13.7 | 12.7 | 94% | 76.25 | 0.0 | |||||||
| 01 | 13:10 | Calm | 0.00 | NULL | NULL | 13.7 | 12.9 | 95% | 76.28 | 0.0 | |||||||
| 01 | 12:50 | NE 6 | 0.00 | NULL | NULL | 13.3 | 12.4 | 13.6 | 12.3 | 94% | 76.3 | 0.0 | 0.03 | ||||
| 01 | 12:30 | Calm | 0.00 | Overcast | BKN008 BKN015 OVC032 | 13.4 | 12.5 | 94% | 76.33 | 0.0 | |||||||
| 01 | 12:10 | Calm | 0.00 | Overcast | BKN008 BKN027 OVC080 | 13.5 | 12.4 | 93% | 76.35 | 0.0 | |||||||
| 01 | 11:50 | Calm | 0.00 | NULL | NULL | 13.6 | 12.3 | 92% | 76.4 | 0.0 | |||||||
| 01 | 11:30 | Calm | 0.00 | Overcast | BKN009 BKN055 OVC090 | 13.5 | 12.1 | 91% | 76.35 | 0.0 | |||||||
| 01 | 11:10 | Calm | 0.00 | NULL | NULL | 13.6 | 12 | 90% | 76.33 | 0.0 | |||||||
| 01 | 10:50 | Calm | 0.00 | NULL | NULL | 13.5 | 11.9 | 90% | 76.3 | 0.0 | |||||||
| 01 | 10:30 | Calm | 0.00 | NULL | NULL | 13.5 | 12.1 | 91% | 76.28 | 0.0 | |||||||
| 01 | 10:10 | Calm | 0.00 | NULL | NULL | 13.3 | 12.1 | 93% | 76.28 | 0.0 | |||||||
| 01 | 09:50 | Calm | 0.00 | NULL | NULL | 13.1 | 12 | 93% | 76.28 | 0.0 | 0.03 | 0.03 | |||||
| 01 | 09:30 | Calm | 0.00 | NULL | NULL | 13 | 11.8 | 93% | 76.33 | 0.0 | |||||||
| 01 | 09:10 | Calm | 0.00 | Overcast | OVC080 | 13 | 11.7 | 92% | 76.3 | 0.0 | |||||||
| 01 | 08:50 | Calm | 0.00 | Overcast | OVC080 | 12.8 | 11.6 | 92% | 76.33 | 0.0 | |||||||
| 01 | 08:30 | Calm | 0.00 | NULL | NULL | 12.7 | 11.7 | 94% | 76.3 | 0.0 | |||||||
| 01 | 08:10 | Calm | 0.00 | NULL | NULL | 12.6 | 11.7 | 94% | 76.28 | 0.0 | |||||||
| 01 | 07:50 | Calm | 0.00 | Overcast | OVC075 | 12.5 | 11.5 | 94% | 76.28 | 0.0 | |||||||
| 01 | 07:30 | Calm | 0.00 | NULL | NULL | 12.4 | 11.3 | 93% | 76.23 | 0.0 | |||||||
| 01 | 07:10 | Calm | 0.00 | NULL | NULL | 12.5 | 11.3 | 92% | 76.2 | 0.0 | |||||||
| 01 | 06:50 | Calm | 0.00 | Overcast | OVC065 | 12.3 | 10.9 | 14.1 | 12.3 | 91% | 76.2 | 0.0 | 0.03 | ||||
| 01 | 06:30 | Calm | 0.00 | NULL | NULL | 12.5 | 10.9 | 90% | 76.17 | 0.0 | |||||||
| 01 | 06:10 | Calm | 0.00 | Overcast | OVC044 | 12.8 | 10.7 | 87% | 76.15 | 0.0 | |||||||
| 01 | 05:50 | Calm | 0.00 | Overcast | OVC042 | 13.3 | 10.5 | 83% | 76.12 | 0.0 | |||||||
| 01 | 05:30 | Calm | 0.00 | Overcast | OVC042 | 13.5 | 10.2 | 81% | 76.12 | 0.0 | |||||||
| 01 | 05:10 | NE 6 | 0.00 | Overcast | OVC042 | 13.5 | 10.1 | 80% | 76.1 | 0.0 | |||||||
| 01 | 04:50 | NE 6 | 0.00 | Overcast | OVC042 | 13.5 | 10.1 | 80% | 76.12 | 0.0 | 0.03 | ||||||
| 01 | 04:30 | Calm | 0.00 | Overcast | OVC042 | 13.5 | 10.3 | 81% | 76.12 | 0.0 | |||||||
| 01 | 03:50 | N 6 | 0.00 | Overcast | OVC040 | 13.5 | 10.5 | 82% | 76.12 | 0.0 | |||||||
| 01 | 03:30 | N 6 | 0.00 | Overcast | OVC040 | 13.4 | 10.7 | 84% | 76.1 | 0.0 | |||||||
| 01 | 03:10 | Calm | 0.00 | Overcast | OVC040 | 13.6 | 10.9 | 84% | 76.12 | 0.0 | |||||||
| 01 | 02:50 | N 6 | 0.00 | Overcast | OVC040 | 13.7 | 11 | 84% | 76.12 | 0.0 | |||||||
| 01 | 02:30 | Calm | 0.00 | Overcast | OVC042 | 13.7 | 11.2 | 85% | 76.15 | 0.0 | |||||||
| 01 | 02:10 | Calm | 0.00 | Overcast | OVC042 | 13.8 | 11.4 | 86% | 76.17 | 0.0 | |||||||
| 01 | 01:50 | Calm | 0.00 | Overcast | OVC044 | 14 | 11.6 | 86% | 76.15 | 0.0 | |||||||
| 01 | 01:30 | Calm | 0.00 | Overcast | OVC042 | 14 | 11.9 | 87% | 76.12 | 0.0 | |||||||
| 01 | 01:10 | Calm | 0.00 | Overcast | OVC042 | 14 | 12 | 88% | 76.12 | 0.0 | |||||||
| 01 | 00:50 | Calm | 0.00 | NULL | NULL | 14.1 | 12.3 | 15.2 | 13.9 | 89% | 76.12 | 0.0 | 0.05 | ||||
| 01 | 00:30 | Calm | 0.00 | Overcast | OVC048 | 14.5 | 12.7 | 89% | 76.15 | 0.0 | |||||||
| 01 | 00:10 | Calm | 0.00 | Overcast | OVC048 | 14.4 | 12.7 | 90% | 76.2 | 0.0 | |||||||
| 30 | 23:50 | Calm | 0.00 | Overcast | OVC048 | 14.3 | 12.9 | 91% | 76.17 | 0.0 | 0.03 | ||||||
| 30 | 23:30 | Calm | 0.00 | Overcast | OVC048 | 14.1 | 13 | 93% | 76.17 | 0.0 | 0.03 | ||||||
| 30 | 23:10 | Calm | 0.00 | Overcast | OVC048 | 14 | 12.7 | 92% | 76.15 | 0.0 | 0.03 | ||||||
| 30 | 22:50 | Calm | 0.00 | NULL | NULL | 14.2 | 12.8 | 91% | 76.15 | 0.0 | |||||||
| 30 | 22:30 | Calm | 0.00 | Overcast | OVC043 | 14.1 | 12.8 | 92% | 76.2 | 0.0 | |||||||
| 30 | 22:10 | Calm | 0.00 | NULL | NULL | 14 | 12.7 | 92% | 76.2 | 0.0 | |||||||
| 30 | 21:50 | Calm | 0.00 | NULL | NULL | 14.1 | 12.5 | 90% | 76.15 | 0.0 | 0.03 | ||||||
| 30 | 21:30 | Calm | 0.00 | Overcast | OVC090 | 14.3 | 12 | 86% | 76.15 | 0.0 | |||||||
| 30 | 21:10 | Calm | 0.00 | Mostly Cloudy | BKN090 BKN120 | 14.3 | 12.2 | 87% | 76.07 | 0.0 | |||||||
| 30 | 20:50 | Calm | 0.00 | NULL | NULL | 14.2 | 12.5 | 90% | 76.05 | 0.0 | |||||||
| 30 | 20:30 | NE 6 | 0.00 | NULL | NULL | 14.4 | 12.7 | 90% | 76.02 | 0.0 | |||||||
| 30 | 20:10 | Calm | 0.00 | NULL | NULL | 14.5 | 13 | 91% | 76.07 | 0.0 | |||||||
| 30 | 19:50 | Calm | 0.00 | Overcast | OVC110 | 14.5 | 13 | 91% | 76.05 | 0.0 | |||||||
| 30 | 19:30 | Calm | 0.00 | Overcast | OVC090 | 14.7 | 13.2 | 91% | 76.07 | 0.0 | |||||||
| 30 | 19:10 | Calm | 0.00 | Overcast | OVC090 | 15.1 | 13 | 87% | 76.05 | 0.0 | |||||||
| 30 | 18:30 | Calm | 0.00 | NULL | NULL | 15 | 13 | 88% | 76.02 | 0.0 | |||||||
| 30 | 18:10 | Calm | 0.00 | NULL | NULL | 15.2 | 12.6 | 85% | 76.07 | 0.0 | |||||||
| 30 | 17:50 | Calm | 0.00 | Overcast | SCT060 BKN075 OVC085 | 16.6 | 11.8 | 73% | 76.07 | 0.0 | |||||||
| 30 | 17:30 | Calm | 0.00 | Overcast | OVC060 | 18 | 10.8 | 63% | 76.12 | 0.0 | |||||||
| 30 | 17:10 | NE 6 | 0.00 | Overcast | BKN060 BKN070 OVC085 | 18.8 | 11 | 61% | 76.05 | 0.0 | |||||||
| 30 | 16:50 | Calm | 0.00 | Overcast | OVC060 | 19.2 | 10.7 | 58% | 76.02 | 0.0 | 0.03 | ||||||
| 30 | 16:30 | NE 6 | 0.00 | Overcast | OVC060 | 18.9 | 10.6 | 59% | 76.02 | 0.0 | 0.03 | ||||||
| 30 | 16:10 | NE 13 | 0.00 | Overcast | OVC060 | 19.1 | 10.8 | 59% | 76.02 | 0.0 | |||||||
| 30 | 15:50 | NE 11 | 0.00 | Overcast | OVC060 | 20 | 11.4 | 58% | 76.05 | 0.0 | 0.03 | ||||||
| Date | Time (cdt) | Wind (kph) | Vis. (km) | Weather | Sky Cond. | Air | Dwpt | Max. | Min. | Relative Humidity | Wind Chill (°C) | Heat Index (°C) | altimeter (cm) | sea level (mb) | 1 hr | 3 hr | 6 hr |
| 6 hour | |||||||||||||||||
| Temperature (ºC) | Pressure | Precipitation (cm) | |||||||||||||||